Time;durP1;ratioP1;P1;durP2;ratioP2;P2;SDS_P1;SDS_P2;PMS_P1;PMS_P2;Temp;Humidity;BMP_temperature;BMP_pressure;BME280_temperature;BME280_humidity;BME280_pressure;Samples;Min_cycle;Max_cycle;Signal;HPM_P1;HPM_P2
2023/09/11 00:00:27;;;;;;;14.33;10.23;;;19.70;99.90;;;;;;4978512;28;20182;-79
2023/09/11 00:02:53;;;;;;;13.87;9.63;;;19.70;99.90;;;;;;4979639;28;20183;-79
2023/09/11 00:05:19;;;;;;;13.93;9.93;;;19.70;99.90;;;;;;4980748;28;20182;-79
2023/09/11 00:07:44;;;;;;;15.67;10.60;;;19.60;99.90;;;;;;4979230;28;20194;-79
2023/09/11 00:10:10;;;;;;;16.37;10.20;;;19.70;99.90;;;;;;4981778;28;20186;-79
2023/09/11 00:12:35;;;;;;;14.77;9.60;;;19.70;99.90;;;;;;4980926;28;20195;-79
2023/09/11 00:15:01;;;;;;;14.63;9.20;;;19.70;99.90;;;;;;4980842;28;20202;-79
2023/09/11 00:17:27;;;;;;;15.10;9.67;;;19.70;99.90;;;;;;4964346;28;20183;-78
2023/09/11 00:19:53;;;;;;;15.67;10.10;;;19.70;99.90;;;;;;4960560;29;20175;-79
2023/09/11 00:22:19;;;;;;;15.63;9.33;;;19.60;99.90;;;;;;4960656;28;20191;-79
2023/09/11 00:24:44;;;;;;;15.10;9.53;;;19.60;99.90;;;;;;4959760;28;20193;-79
2023/09/11 00:27:10;;;;;;;12.97;9.53;;;19.60;99.90;;;;;;4962956;28;20270;-79
2023/09/11 00:29:35;;;;;;;11.77;9.63;;;19.50;99.90;;;;;;4960366;29;20547;-79
2023/09/11 00:32:01;;;;;;;14.80;9.47;;;19.50;99.90;;;;;;4960450;28;20571;-79
2023/09/11 00:34:27;;;;;;;15.50;9.50;;;19.50;99.90;;;;;;4958943;28;20334;-79
2023/09/11 00:36:52;;;;;;;14.80;9.47;;;19.40;99.90;;;;;;4970038;28;20282;-79
2023/09/11 00:39:18;;;;;;;11.57;10.17;;;19.50;99.90;;;;;;4979652;28;20237;-79
2023/09/11 00:41:43;;;;;;;16.87;9.30;;;19.40;99.90;;;;;;4979411;28;20213;-79
2023/09/11 00:44:09;;;;;;;13.23;9.93;;;19.40;99.90;;;;;;4979569;28;20181;-79
2023/09/11 00:46:35;;;;;;;16.47;9.77;;;19.30;99.90;;;;;;4978008;28;20186;-79
2023/09/11 00:49:00;;;;;;;12.73;8.80;;;19.40;99.90;;;;;;4979652;28;20314;-79
2023/09/11 00:51:27;;;;;;;15.93;9.93;;;19.30;99.90;;;;;;4979596;28;20218;-79
2023/09/11 00:53:54;;;;;;;14.13;9.53;;;19.30;99.90;;;;;;4977663;28;20545;-79
2023/09/11 00:56:19;;;;;;;16.67;9.53;;;19.20;99.90;;;;;;4976910;28;20202;-79
2023/09/11 00:58:46;;;;;;;15.73;9.87;;;19.20;99.90;;;;;;4978685;28;20218;-79
2023/09/11 01:01:12;;;;;;;13.30;9.60;;;19.20;99.90;;;;;;4979949;28;20190;-79
2023/09/11 01:03:38;;;;;;;14.13;9.47;;;19.20;99.90;;;;;;4980245;28;20265;-79
2023/09/11 01:06:04;;;;;;;17.67;9.33;;;19.20;99.90;;;;;;4980900;28;20202;-79
2023/09/11 01:08:30;;;;;;;15.80;8.87;;;19.20;99.90;;;;;;4984023;28;20618;-79
2023/09/11 01:10:56;;;;;;;16.27;9.23;;;19.10;99.90;;;;;;4986145;28;20213;-79
2023/09/11 01:13:23;;;;;;;13.87;9.47;;;19.10;99.90;;;;;;4987404;28;20171;-79
2023/09/11 01:16:00;;;;;;;13.33;8.90;;;19.10;99.90;;;;;;4980167;28;20248;-80
2023/09/11 01:18:38;;;;;;;13.97;9.23;;;19.10;99.90;;;;;;4980694;28;20166;-79
2023/09/11 01:21:35;;;;;;;14.97;9.23;;;19.00;99.90;;;;;;4978669;28;20792;-79
2023/09/11 01:24:10;;;;;;;12.47;8.83;;;19.00;99.90;;;;;;4926954;28;20789;-79
2023/09/11 01:27:13;;;;;;;14.10;8.80;;;19.00;99.90;;;;;;4978640;28;20586;-79
2023/09/11 01:29:41;;;;;;;11.17;8.97;;;19.00;99.90;;;;;;4976917;28;20185;-81
2023/09/11 01:32:08;;;;;;;15.73;9.33;;;18.90;99.90;;;;;;4979837;28;20573;-79
2023/09/11 01:34:34;;;;;;;9.93;8.73;;;18.90;99.90;;;;;;4978273;28;20722;-79
2023/09/11 01:36:59;;;;;;;13.13;9.47;;;18.90;99.90;;;;;;4979302;28;20217;-80
2023/09/11 01:39:25;;;;;;;15.63;9.20;;;18.80;99.90;;;;;;4959437;29;20269;-79
2023/09/11 01:41:54;;;;;;;12.90;9.17;;;18.90;99.90;;;;;;4958553;28;20214;-79
2023/09/11 01:44:26;;;;;;;9.80;8.23;;;18.80;99.90;;;;;;4958392;29;20183;-79
2023/09/11 01:46:53;;;;;;;10.97;8.50;;;18.80;99.90;;;;;;4971775;28;20722;-79
2023/09/11 01:49:20;;;;;;;13.90;9.30;;;18.80;99.90;;;;;;4977727;28;20193;-81
2023/09/11 01:51:47;;;;;;;16.37;9.27;;;18.80;99.90;;;;;;4957914;28;20209;-79
2023/09/11 01:54:13;;;;;;;14.23;9.87;;;18.80;99.90;;;;;;4958528;29;20190;-79
2023/09/11 01:56:39;;;;;;;18.90;9.50;;;18.70;99.90;;;;;;4966647;28;20214;-79
2023/09/11 01:59:04;;;;;;;17.57;9.63;;;18.70;99.90;;;;;;4978115;28;20181;-79
2023/09/11 02:01:30;;;;;;;15.93;9.83;;;18.70;99.90;;;;;;4977816;28;20226;-79
2023/09/11 02:03:55;;;;;;;17.07;9.33;;;18.70;99.90;;;;;;4978773;28;20185;-79
2023/09/11 02:06:21;;;;;;;20.17;9.60;;;18.70;99.90;;;;;;4978025;28;20197;-79
2023/09/11 02:08:47;;;;;;;13.17;9.00;;;18.70;99.90;;;;;;4979502;28;20178;-79
2023/09/11 02:11:12;;;;;;;14.50;9.40;;;18.60;99.90;;;;;;4978751;28;20209;-79
2023/09/11 02:13:38;;;;;;;16.33;10.07;;;18.60;99.90;;;;;;4979994;28;20178;-79
2023/09/11 02:16:03;;;;;;;16.17;9.37;;;18.60;99.90;;;;;;4980861;28;20208;-79
2023/09/11 02:18:29;;;;;;;13.30;8.93;;;18.60;99.90;;;;;;4980675;28;20210;-79
2023/09/11 02:20:54;;;;;;;15.70;9.13;;;18.80;99.90;;;;;;4979974;28;20633;-79
2023/09/11 02:23:22;;;;;;;15.93;9.17;;;18.60;99.90;;;;;;4979946;28;20263;-78
2023/09/11 02:25:48;;;;;;;13.60;8.67;;;18.60;99.90;;;;;;4981213;28;20187;-79
2023/09/11 02:28:14;;;;;;;16.63;8.30;;;18.60;99.90;;;;;;4983135;28;20302;-79
2023/09/11 02:30:39;;;;;;;13.13;8.50;;;18.50;99.90;;;;;;4983232;28;20182;-80
2023/09/11 02:33:05;;;;;;;13.20;8.57;;;18.50;99.90;;;;;;4980833;28;20217;-79
2023/09/11 02:35:31;;;;;;;13.27;9.03;;;18.50;99.90;;;;;;4980002;28;20198;-78
2023/09/11 02:37:57;;;;;;;14.93;8.63;;;18.50;99.90;;;;;;4979357;28;20265;-79
2023/09/11 02:40:22;;;;;;;14.90;9.03;;;18.50;99.90;;;;;;4980971;28;20206;-79
2023/09/11 02:42:48;;;;;;;11.30;8.67;;;18.40;99.90;;;;;;4980015;28;20182;-79
2023/09/11 02:45:14;;;;;;;14.40;8.90;;;18.40;99.90;;;;;;4981736;28;20210;-79
2023/09/11 02:47:39;;;;;;;16.33;9.50;;;18.40;99.90;;;;;;4979340;28;20214;-79
2023/09/11 02:50:05;;;;;;;14.80;8.90;;;18.40;99.90;;;;;;4981244;28;20633;-79
2023/09/11 02:52:31;;;;;;;13.87;8.33;;;18.40;99.90;;;;;;4981261;28;20197;-79
2023/09/11 02:54:56;;;;;;;13.60;9.20;;;18.30;99.90;;;;;;4980789;28;20198;-79
2023/09/11 02:57:22;;;;;;;16.33;8.57;;;18.30;99.90;;;;;;4980131;28;20572;-78
2023/09/11 02:59:47;;;;;;;10.57;7.47;;;18.30;99.90;;;;;;4981548;28;20175;-79
2023/09/11 03:02:13;;;;;;;14.03;7.97;;;18.20;99.90;;;;;;4980080;28;20202;-79
2023/09/11 03:04:39;;;;;;;17.30;8.63;;;18.20;99.90;;;;;;4982051;28;20250;-79
2023/09/11 03:07:04;;;;;;;19.93;10.27;;;18.20;99.90;;;;;;4979560;28;20202;-79
2023/09/11 03:09:30;;;;;;;13.27;8.40;;;18.20;99.90;;;;;;4981800;28;20201;-79
2023/09/11 03:11:56;;;;;;;15.30;9.17;;;18.10;99.90;;;;;;4982034;28;20198;-79
2023/09/11 03:14:21;;;;;;;17.73;8.80;;;18.10;99.90;;;;;;4983435;28;20206;-79
2023/09/11 03:16:47;;;;;;;13.60;8.30;;;18.10;99.90;;;;;;4979866;28;20213;-78
2023/09/11 03:19:13;;;;;;;11.77;8.73;;;18.10;99.90;;;;;;4979961;28;20175;-78
2023/09/11 03:21:38;;;;;;;13.43;8.80;;;18.10;99.90;;;;;;4978746;28;20198;-78
2023/09/11 03:24:04;;;;;;;17.97;9.40;;;18.10;99.90;;;;;;4976286;28;20178;-78
2023/09/11 03:26:30;;;;;;;15.00;8.87;;;18.10;99.90;;;;;;4976945;28;20194;-78
2023/09/11 03:28:55;;;;;;;13.33;9.43;;;18.00;99.90;;;;;;4976882;28;20245;-78
2023/09/11 03:31:21;;;;;;;11.63;8.83;;;17.90;99.90;;;;;;4977980;28;20205;-78
2023/09/11 03:33:47;;;;;;;12.73;9.20;;;18.00;99.90;;;;;;4977947;28;20241;-78
2023/09/11 03:36:17;;;;;;;17.23;9.30;;;18.00;99.90;;;;;;4975417;28;20244;-79
2023/09/11 03:38:43;;;;;;;10.27;8.00;;;18.00;99.90;;;;;;4977646;28;20178;-77
2023/09/11 03:41:09;;;;;;;11.53;8.30;;;18.00;99.90;;;;;;4977502;28;20198;-78
2023/09/11 03:43:35;;;;;;;12.67;8.60;;;18.00;99.90;;;;;;4977740;28;20527;-77
2023/09/11 03:46:01;;;;;;;12.67;8.90;;;18.00;99.90;;;;;;4974560;28;20198;-78
2023/09/11 03:48:27;;;;;;;10.37;8.80;;;18.00;99.90;;;;;;4977520;28;20245;-79
2023/09/11 03:50:52;;;;;;;12.23;8.43;;;18.00;99.90;;;;;;4976045;28;20202;-78
2023/09/11 03:53:18;;;;;;;14.27;8.97;;;17.90;99.90;;;;;;4978307;28;20618;-78
2023/09/11 03:55:43;;;;;;;15.10;8.83;;;17.90;99.90;;;;;;4974894;28;20206;-78
2023/09/11 03:58:10;;;;;;;10.67;8.77;;;17.90;99.90;;;;;;4965247;28;20194;-78
2023/09/11 04:00:36;;;;;;;16.70;8.40;;;17.90;99.90;;;;;;4976890;28;20179;-78
2023/09/11 04:03:03;;;;;;;16.00;8.90;;;17.80;99.90;;;;;;4976988;28;20591;-78
2023/09/11 04:05:29;;;;;;;11.83;8.47;;;17.80;99.90;;;;;;4974856;28;20646;-78
2023/09/11 04:07:55;;;;;;;12.37;8.57;;;17.80;99.90;;;;;;4975439;28;20273;-78
2023/09/11 04:10:20;;;;;;;16.63;8.60;;;17.80;99.90;;;;;;4975767;28;20193;-78
2023/09/11 04:12:46;;;;;;;16.93;8.43;;;17.80;99.90;;;;;;4976825;28;20194;-78
2023/09/11 04:15:12;;;;;;;12.77;9.63;;;17.80;99.90;;;;;;4975285;28;20296;-78
2023/09/11 04:17:37;;;;;;;13.33;8.87;;;17.80;99.90;;;;;;4975089;28;20690;-78
2023/09/11 04:20:03;;;;;;;13.20;7.73;;;17.70;99.90;;;;;;4975974;28;20629;-78
2023/09/11 04:22:29;;;;;;;15.00;8.10;;;17.70;99.90;;;;;;4976602;28;20253;-78
2023/09/11 04:24:54;;;;;;;15.17;9.43;;;17.70;99.90;;;;;;4976725;28;20174;-78
2023/09/11 04:27:20;;;;;;;13.33;8.47;;;17.70;99.90;;;;;;4977303;28;20626;-79
2023/09/11 04:29:45;;;;;;;12.07;8.13;;;17.70;99.90;;;;;;4976989;28;20182;-79
2023/09/11 04:32:12;;;;;;;13.83;7.70;;;17.80;99.90;;;;;;4976317;28;20214;-78
2023/09/11 04:34:38;;;;;;;14.97;8.57;;;17.70;99.90;;;;;;4978691;28;20233;-78
2023/09/11 04:37:03;;;;;;;10.63;8.17;;;17.60;99.90;;;;;;4975773;28;20213;-78
2023/09/11 04:39:29;;;;;;;13.80;8.90;;;17.70;99.90;;;;;;4975679;28;20182;-78
2023/09/11 04:41:54;;;;;;;16.40;8.17;;;17.60;99.90;;;;;;4977543;28;20286;-78
2023/09/11 04:44:20;;;;;;;10.47;7.90;;;17.60;99.90;;;;;;4977158;28;20174;-82
2023/09/11 04:46:45;;;;;;;12.13;8.13;;;17.60;99.90;;;;;;4976459;28;20190;-80
2023/09/11 04:49:11;;;;;;;12.67;8.50;;;17.60;99.90;;;;;;4977029;28;20182;-80
2023/09/11 04:51:36;;;;;;;12.50;8.13;;;17.60;99.90;;;;;;4977272;28;20594;-80
2023/09/11 04:54:02;;;;;;;12.43;7.80;;;17.60;99.90;;;;;;4977930;28;20175;-81
2023/09/11 04:56:28;;;;;;;14.37;8.07;;;17.60;99.90;;;;;;4975649;28;20684;-81
2023/09/11 04:58:53;;;;;;;11.60;8.23;;;17.60;99.90;;;;;;4976399;28;20567;-80
2023/09/11 05:01:19;;;;;;;13.27;8.83;;;17.60;99.90;;;;;;4977386;28;20208;-81
2023/09/11 05:03:44;;;;;;;13.93;7.90;;;17.60;99.90;;;;;;4977444;28;20218;-80
2023/09/11 05:06:10;;;;;;;13.33;8.20;;;17.60;99.90;;;;;;4975998;28;20190;-79
2023/09/11 05:08:35;;;;;;;10.47;8.10;;;17.60;99.90;;;;;;4977547;28;20174;-80
2023/09/11 05:11:02;;;;;;;13.73;8.73;;;17.60;99.90;;;;;;4977852;28;20217;-80
2023/09/11 05:13:27;;;;;;;11.57;7.80;;;17.70;99.90;;;;;;4977553;28;20233;-80
2023/09/11 05:15:53;;;;;;;11.93;7.90;;;17.60;99.90;;;;;;4977532;28;20202;-81
2023/09/11 05:18:18;;;;;;;10.33;8.13;;;17.60;99.90;;;;;;4978004;28;20182;-79
2023/09/11 05:20:44;;;;;;;17.67;8.20;;;17.60;99.90;;;;;;4978350;28;20268;-79
2023/09/11 05:23:10;;;;;;;15.00;7.43;;;17.70;99.90;;;;;;4981569;28;20246;-81
2023/09/11 05:25:36;;;;;;;16.03;8.30;;;17.60;99.90;;;;;;4988968;28;20174;-80
2023/09/11 05:28:02;;;;;;;18.73;8.43;;;17.60;99.90;;;;;;4977384;28;20209;-81
2023/09/11 05:30:27;;;;;;;12.53;8.10;;;17.60;99.90;;;;;;4976760;28;20189;-80
2023/09/11 05:32:53;;;;;;;13.90;7.77;;;17.60;99.90;;;;;;4976502;28;20194;-79
2023/09/11 05:35:20;;;;;;;11.60;7.70;;;17.70;99.90;;;;;;4974902;28;20207;-79
2023/09/11 05:37:45;;;;;;;13.47;8.17;;;17.50;99.90;;;;;;4976645;28;20187;-79
2023/09/11 05:40:11;;;;;;;11.97;7.83;;;17.50;99.90;;;;;;4976463;28;20496;-79
2023/09/11 05:42:37;;;;;;;12.13;7.63;;;17.70;99.90;;;;;;4974403;28;20636;-79
2023/09/11 05:45:03;;;;;;;10.63;7.77;;;17.60;99.90;;;;;;4975643;28;20500;-79
2023/09/11 05:47:28;;;;;;;12.07;7.77;;;17.70;99.90;;;;;;4974604;28;20264;-79
2023/09/11 05:49:59;;;;;;;12.07;7.70;;;17.70;99.90;;;;;;4974316;28;20642;-79
2023/09/11 05:52:24;;;;;;;15.87;7.17;;;17.70;99.90;;;;;;4974173;28;20200;-79
2023/09/11 05:54:50;;;;;;;14.40;8.57;;;17.80;99.90;;;;;;4976119;28;20554;-79
2023/09/11 05:57:15;;;;;;;10.90;8.30;;;17.70;99.90;;;;;;4970355;28;20183;-79
2023/09/11 05:59:41;;;;;;;13.20;8.20;;;17.60;99.90;;;;;;4958648;28;20182;-79
2023/09/11 06:02:06;;;;;;;14.37;8.43;;;17.80;99.90;;;;;;4960202;28;20330;-79
2023/09/11 06:04:32;;;;;;;11.13;8.07;;;17.80;99.90;;;;;;4959413;28;20175;-79
2023/09/11 06:06:58;;;;;;;15.27;8.20;;;17.80;99.90;;;;;;4976365;28;20611;-79
2023/09/11 06:09:23;;;;;;;14.73;8.40;;;17.80;99.90;;;;;;4977979;28;20209;-79
2023/09/11 06:11:49;;;;;;;12.07;8.43;;;17.80;99.90;;;;;;4979184;28;20641;-79
2023/09/11 06:14:15;;;;;;;14.10;8.40;;;17.90;99.90;;;;;;4979088;28;20174;-79
2023/09/11 06:16:40;;;;;;;10.07;7.67;;;17.80;99.90;;;;;;4977921;28;20220;-79
2023/09/11 06:19:06;;;;;;;15.60;8.27;;;18.00;99.90;;;;;;4977637;28;20177;-79
2023/09/11 06:21:32;;;;;;;16.57;8.23;;;18.00;99.90;;;;;;4978990;28;20225;-79
2023/09/11 06:23:57;;;;;;;13.33;7.73;;;18.00;99.90;;;;;;4977375;28;20670;-79
2023/09/11 06:26:23;;;;;;;12.50;8.07;;;18.10;99.90;;;;;;4979254;28;20170;-79
2023/09/11 06:28:50;;;;;;;14.90;8.50;;;18.20;99.90;;;;;;4978032;28;20677;-78
2023/09/11 06:31:16;;;;;;;16.40;7.97;;;18.20;99.90;;;;;;4978013;28;20209;-79
2023/09/11 06:33:43;;;;;;;15.33;7.60;;;18.30;99.90;;;;;;4974905;28;20202;-79
2023/09/11 06:36:09;;;;;;;15.70;7.37;;;18.50;99.90;;;;;;4978479;28;20276;-79
2023/09/11 06:38:34;;;;;;;15.40;7.93;;;18.40;99.90;;;;;;4978776;28;20174;-79
2023/09/11 06:41:00;;;;;;;18.17;7.97;;;18.50;99.90;;;;;;4980062;28;20212;-79
2023/09/11 06:43:25;;;;;;;12.73;7.50;;;18.50;99.90;;;;;;4979219;28;20225;-80
2023/09/11 06:45:54;;;;;;;15.93;7.13;;;18.70;99.90;;;;;;4980935;28;20181;-79
2023/09/11 06:48:21;;;;;;;15.70;8.13;;;18.50;99.90;;;;;;4978428;28;20178;-79
2023/09/11 06:50:47;;;;;;;12.63;7.83;;;18.70;99.90;;;;;;4978186;28;20736;-79
2023/09/11 06:53:13;;;;;;;11.27;7.50;;;18.80;99.90;;;;;;4978695;28;20273;-79
2023/09/11 06:55:48;;;;;;;12.47;6.93;;;18.80;99.90;;;;;;4978711;28;20581;-79
2023/09/11 06:58:14;;;;;;;13.90;7.50;;;18.90;99.90;;;;;;4978390;28;20174;-79
2023/09/11 07:00:40;;;;;;;13.27;6.70;;;19.00;99.90;;;;;;4980136;28;20174;-79
2023/09/11 07:03:06;;;;;;;15.43;7.33;;;19.10;99.90;;;;;;4978863;28;20179;-79
2023/09/11 07:05:32;;;;;;;12.87;6.90;;;19.10;99.90;;;;;;4979462;28;20238;-79
2023/09/11 07:07:57;;;;;;;15.93;6.43;;;19.10;99.90;;;;;;4978010;28;20202;-79
2023/09/11 07:10:24;;;;;;;14.00;7.60;;;19.30;99.90;;;;;;4976410;28;20178;-80
2023/09/11 07:12:49;;;;;;;22.00;7.30;;;19.50;99.90;;;;;;4979322;28;20185;-78
2023/09/11 07:15:16;;;;;;;14.50;6.67;;;19.40;99.90;;;;;;4977285;28;20210;-79
2023/09/11 07:17:42;;;;;;;14.73;7.63;;;19.50;99.90;;;;;;4979536;28;20171;-79
2023/09/11 07:20:09;;;;;;;17.87;7.23;;;19.60;99.90;;;;;;4979188;28;20196;-79
2023/09/11 07:22:35;;;;;;;14.47;6.50;;;19.70;99.90;;;;;;4978774;28;20201;-79
2023/09/11 07:25:00;;;;;;;11.60;6.53;;;19.70;99.90;;;;;;4979198;28;20569;-79
2023/09/11 07:27:33;;;;;;;14.87;7.40;;;19.90;99.90;;;;;;4978737;28;20242;-79
2023/09/11 07:30:03;;;;;;;18.47;6.37;;;19.90;99.90;;;;;;4979586;28;20158;-79
2023/09/11 07:32:30;;;;;;;16.37;7.23;;;20.00;99.90;;;;;;4983067;28;20203;-79
2023/09/11 07:34:58;;;;;;;15.43;6.13;;;19.90;99.90;;;;;;4986070;28;20190;-78
2023/09/11 07:37:24;;;;;;;14.47;6.10;;;20.10;99.90;;;;;;4977677;28;20206;-79
2023/09/11 07:39:50;;;;;;;16.67;6.20;;;20.20;99.90;;;;;;4977790;28;20174;-78
2023/09/11 07:42:16;;;;;;;11.47;6.13;;;20.30;99.90;;;;;;4977103;28;20194;-79
2023/09/11 07:44:43;;;;;;;16.43;6.60;;;20.30;99.90;;;;;;4977091;28;20336;-79
2023/09/11 07:47:08;;;;;;;11.40;6.50;;;20.60;99.90;;;;;;4976072;28;20186;-79
2023/09/11 07:49:34;;;;;;;13.67;6.23;;;20.40;99.90;;;;;;4976909;28;20208;-79
2023/09/11 07:51:59;;;;;;;15.10;6.50;;;20.50;99.90;;;;;;4978949;28;20198;-79
2023/09/11 07:54:25;;;;;;;18.20;7.50;;;20.60;99.90;;;;;;4976955;28;20201;-79
2023/09/11 07:56:52;;;;;;;13.47;6.47;;;20.70;99.90;;;;;;4977447;28;20665;-79
2023/09/11 07:59:17;;;;;;;17.40;6.43;;;20.70;99.90;;;;;;4976300;28;20178;-81
2023/09/11 08:01:43;;;;;;;17.83;6.60;;;20.80;99.90;;;;;;4979167;28;20269;-79
2023/09/11 08:04:09;;;;;;;13.43;6.07;;;21.00;99.90;;;;;;4978804;28;20174;-79
2023/09/11 08:06:34;;;;;;;15.43;5.47;;;20.90;99.90;;;;;;4979429;28;20175;-79
2023/09/11 08:09:03;;;;;;;16.13;6.00;;;21.00;99.90;;;;;;4978194;28;20764;-80
2023/09/11 08:11:30;;;;;;;19.53;6.33;;;21.00;99.90;;;;;;4977932;28;20210;-81
2023/09/11 08:13:56;;;;;;;14.47;5.80;;;21.20;99.90;;;;;;4977557;28;20497;-79
2023/09/11 08:16:22;;;;;;;13.90;5.90;;;21.20;99.90;;;;;;4975400;28;20297;-79
2023/09/11 08:18:47;;;;;;;12.10;5.93;;;21.20;99.90;;;;;;4976752;28;20214;-79
2023/09/11 08:21:13;;;;;;;15.20;5.43;;;21.50;99.90;;;;;;4977679;28;20261;-80
2023/09/11 08:23:41;;;;;;;13.63;5.80;;;21.50;99.90;;;;;;4977219;28;20257;-79
2023/09/11 08:26:08;;;;;;;17.23;6.23;;;21.50;99.90;;;;;;4977827;28;20178;-79
2023/09/11 08:28:33;;;;;;;14.17;5.43;;;21.60;99.90;;;;;;4977475;28;20257;-79
2023/09/11 08:30:59;;;;;;;17.83;5.90;;;21.70;99.90;;;;;;4977605;28;20232;-79
2023/09/11 08:33:25;;;;;;;10.17;5.40;;;21.80;99.90;;;;;;4976477;28;20198;-80
2023/09/11 08:35:50;;;;;;;12.33;5.37;;;21.80;99.90;;;;;;4977183;28;20257;-79
2023/09/11 08:38:17;;;;;;;16.07;5.30;;;21.80;99.90;;;;;;4977303;28;20167;-79
2023/09/11 08:40:43;;;;;;;13.43;5.37;;;21.90;99.90;;;;;;4977453;28;20254;-79
2023/09/11 08:43:09;;;;;;;12.67;5.67;;;22.00;99.90;;;;;;4975948;28;20182;-79
2023/09/11 08:45:34;;;;;;;13.73;5.63;;;22.10;99.90;;;;;;4976022;28;20267;-79
2023/09/11 08:48:06;;;;;;;12.13;6.10;;;22.00;99.90;;;;;;4976358;28;20217;-79
2023/09/11 08:50:34;;;;;;;16.67;5.70;;;22.30;99.90;;;;;;4977470;28;20166;-79
2023/09/11 08:53:01;;;;;;;12.37;5.57;;;22.20;99.90;;;;;;4975789;28;20266;-81
2023/09/11 08:55:33;;;;;;;11.27;5.43;;;22.40;99.90;;;;;;4977524;28;20551;-79
2023/09/11 08:58:03;;;;;;;12.07;5.47;;;22.50;99.90;;;;;;4975878;28;20178;-79
2023/09/11 09:00:31;;;;;;;13.17;4.97;;;22.50;99.90;;;;;;4975740;28;20177;-80
2023/09/11 09:02:57;;;;;;;16.27;5.83;;;22.60;99.90;;;;;;4977350;28;20209;-79
2023/09/11 09:05:24;;;;;;;15.17;5.80;;;22.70;99.90;;;;;;4975377;28;20190;-79
2023/09/11 09:07:51;;;;;;;18.93;5.33;;;22.70;1.00;;;;;;4977670;28;20261;-79
2023/09/11 09:10:18;;;;;;;10.57;6.00;;;22.90;1.00;;;;;;4977811;28;20179;-79
2023/09/11 09:12:44;;;;;;;13.10;5.83;;;22.90;1.00;;;;;;4976290;28;20198;-78
2023/09/11 09:15:11;;;;;;;13.67;5.33;;;23.00;1.00;;;;;;4976892;28;20274;-79
2023/09/11 09:17:36;;;;;;;12.77;4.93;;;23.00;99.90;;;;;;4977520;28;20201;-80
2023/09/11 09:20:04;;;;;;;15.47;5.03;;;23.10;99.90;;;;;;4975844;28;20174;-79
2023/09/11 09:22:30;;;;;;;15.27;5.60;;;23.30;1.00;;;;;;4977002;28;20194;-79
2023/09/11 09:24:55;;;;;;;13.83;5.10;;;23.40;99.90;;;;;;4976091;28;20197;-79
2023/09/11 09:27:24;;;;;;;12.97;5.50;;;23.50;1.00;;;;;;4976183;28;20177;-79
2023/09/11 09:29:50;;;;;;;14.10;5.43;;;23.70;99.90;;;;;;4976302;28;20347;-79
2023/09/11 09:32:17;;;;;;;10.53;5.40;;;23.70;1.00;;;;;;4976493;28;20600;-80
2023/09/11 09:35:03;;;;;;;11.83;5.20;;;23.80;1.00;;;;;;4977124;28;20236;-79
2023/09/11 09:37:28;;;;;;;10.83;5.20;;;23.90;1.00;;;;;;4978228;28;20190;-80
2023/09/11 09:39:54;;;;;;;14.53;4.77;;;23.90;1.00;;;;;;4979067;28;20520;-79
2023/09/11 09:42:20;;;;;;;10.57;4.70;;;24.10;1.00;;;;;;4983349;28;20201;-79
2023/09/11 09:44:52;;;;;;;11.53;5.03;;;24.20;1.00;;;;;;4983553;28;20177;-79
2023/09/11 09:47:19;;;;;;;17.27;5.07;;;24.30;1.00;;;;;;4976924;28;20235;-79
2023/09/11 09:49:57;;;;;;;13.00;5.40;;;24.40;15.20;;;;;;4974720;28;20174;-79
2023/09/11 09:52:30;;;;;;;10.18;4.60;;;24.30;99.90;;;;;;4957541;28;20269;-79
2023/09/11 09:54:58;;;;;;;12.60;4.80;;;24.50;99.90;;;;;;4957973;29;20179;-79
2023/09/11 09:57:25;;;;;;;14.35;5.05;;;24.50;99.90;;;;;;4957407;29;20183;-79
2023/09/11 09:59:57;;;;;;;19.70;5.20;;;24.50;99.90;;;;;;4962375;28;20174;-78
2023/09/11 10:02:30;;;;;;;11.23;5.17;;;24.50;1.00;;;;;;4976571;28;20190;-79
2023/09/11 10:05:00;;;;;;;10.63;4.73;;;24.60;1.00;;;;;;4975507;28;20166;-79
2023/09/11 10:07:37;;;;;;;19.20;5.13;;;24.80;99.90;;;;;;4976064;28;20171;-78
2023/09/11 10:10:22;;;;;;;16.15;5.15;;;24.90;99.90;;;;;;4975133;28;20234;-78
2023/09/11 10:13:09;;;;;;;13.43;4.95;;;25.00;99.90;;;;;;4974866;28;20194;-81
2023/09/11 10:15:37;;;;;;;14.10;4.97;;;25.00;1.00;;;;;;4975693;28;20582;-79
2023/09/11 10:18:03;;;;;;;11.68;5.25;;;25.20;99.90;;;;;;4976765;28;20169;-79
2023/09/11 10:20:30;;;;;;;16.23;5.20;;;25.20;37.10;;;;;;4977117;28;20177;-79
2023/09/11 10:22:58;;;;;;;15.80;5.25;;;25.40;1.00;;;;;;4975421;28;20495;-80
2023/09/11 10:25:26;;;;;;;15.93;6.38;;;25.40;99.90;;;;;;4975565;28;20181;-79
2023/09/11 10:28:04;;;;;;;15.30;5.45;;;25.50;99.90;;;;;;4977735;28;20197;-79
2023/09/11 10:30:36;;;;;;;14.95;5.53;;;25.50;1.00;;;;;;4976786;28;20568;-79
2023/09/11 10:33:09;;;;;;;13.95;5.63;;;25.70;1.00;;;;;;4974339;28;20201;-78
2023/09/11 10:35:39;;;;;;;16.60;5.53;;;25.70;1.00;;;;;;4974451;28;20198;-79
2023/09/11 10:38:08;;;;;;;14.48;5.43;;;26.00;1.00;;;;;;4967799;28;20189;-80
2023/09/11 10:40:34;;;;;;;18.45;5.55;;;26.10;1.00;;;;;;4955984;28;20180;-80
2023/09/11 10:43:00;;;;;;;14.85;5.45;;;26.10;31.10;;;;;;4960026;29;20178;-79
2023/09/11 10:45:32;;;;;;;14.23;5.45;;;26.20;1.00;;;;;;4956180;28;20179;-79
2023/09/11 10:47:58;;;;;;;16.10;5.93;;;26.30;1.00;;;;;;4960119;29;20254;-79
2023/09/11 10:50:45;;;;;;;16.67;5.63;;;26.30;1.00;;;;;;4958270;28;20209;-80
2023/09/11 10:53:11;;;;;;;11.85;5.18;;;26.30;1.00;;;;;;4978032;28;20194;-79
2023/09/11 10:55:38;;;;;;;16.33;6.07;;;26.40;99.90;;;;;;4979013;28;20228;-79
2023/09/11 10:58:05;;;;;;;12.07;5.75;;;26.50;99.90;;;;;;4979456;28;20175;-79
2023/09/11 11:00:38;;;;;;;17.15;5.35;;;26.50;1.00;;;;;;4977447;28;20181;-79
2023/09/11 11:03:05;;;;;;;12.15;6.28;;;26.60;20.30;;;;;;4978076;28;20169;-79
2023/09/11 11:05:36;;;;;;;11.80;5.25;;;26.70;99.90;;;;;;4977871;28;20269;-80
2023/09/11 11:08:02;;;;;;;14.10;5.72;;;26.80;99.90;;;;;;4978218;28;20257;-81
2023/09/11 11:10:28;;;;;;;13.85;5.20;;;26.90;1.00;;;;;;4977944;28;20240;-80
2023/09/11 11:13:09;;;;;;;14.30;6.15;;;27.00;47.60;;;;;;4977506;28;20178;-79
2023/09/11 11:15:35;;;;;;;13.82;6.20;;;27.00;1.00;;;;;;4978436;28;20622;-79
2023/09/11 11:18:23;;;;;;;13.95;6.35;;;27.00;99.90;;;;;;4978444;28;20309;-80
2023/09/11 11:21:00;;;;;;;12.90;5.93;;;27.00;1.00;;;;;;4977728;28;20752;-80
2023/09/11 11:23:29;;;;;;;17.70;5.88;;;27.00;42.10;;;;;;4974900;28;20197;-79
2023/09/11 11:26:00;;;;;;;15.27;6.38;;;27.00;99.90;;;;;;4960048;28;20178;-79
2023/09/11 11:28:25;;;;;;;16.17;6.80;;;27.10;99.90;;;;;;4960705;29;20222;-79
2023/09/11 11:30:53;;;;;;;15.77;6.18;;;27.10;99.90;;;;;;4960369;28;20604;-79
2023/09/11 11:33:24;;;;;;;17.15;5.57;;;27.20;99.90;;;;;;4959777;29;20201;-80
2023/09/11 11:35:51;;;;;;;13.40;6.35;;;27.20;99.90;;;;;;4960952;29;20732;-80
2023/09/11 11:38:18;;;;;;;16.05;5.95;;;27.20;1.00;;;;;;4970633;28;20178;-79
2023/09/11 11:40:44;;;;;;;14.38;5.40;;;27.30;27.70;;;;;;4976480;28;20198;-80
2023/09/11 11:43:11;;;;;;;13.85;5.70;;;27.30;99.90;;;;;;4975332;28;20290;-81
2023/09/11 11:45:44;;;;;;;16.65;6.43;;;27.40;99.90;;;;;;4976150;28;20178;-79
2023/09/11 11:48:14;;;;;;;15.45;5.68;;;27.40;1.00;;;;;;4978181;28;20171;-79
2023/09/11 11:50:44;;;;;;;14.95;5.10;;;27.50;1.00;;;;;;4977074;28;20179;-80
2023/09/11 11:53:18;;;;;;;11.18;5.20;;;27.60;99.90;;;;;;4977956;28;20178;-79
2023/09/11 11:55:44;;;;;;;14.35;6.22;;;27.80;99.90;;;;;;4977459;28;20205;-80
2023/09/11 11:58:14;;;;;;;16.13;6.45;;;27.70;99.90;;;;;;4975623;28;20178;-79
2023/09/11 12:01:02;;;;;;;15.45;5.45;;;27.70;99.90;;;;;;4978508;28;20701;-80
2023/09/11 12:03:30;;;;;;;14.07;5.70;;;27.80;21.30;;;;;;4976514;28;20229;-79
2023/09/11 12:05:57;;;;;;;12.45;5.60;;;27.90;1.00;;;;;;4978317;28;20189;-79
2023/09/11 12:08:23;;;;;;;10.85;5.07;;;27.90;1.00;;;;;;4977743;28;20206;-79
2023/09/11 12:10:49;;;;;;;13.25;5.35;;;28.00;99.90;;;;;;4976306;28;20232;-79
2023/09/11 12:13:20;;;;;;;11.25;5.43;;;27.80;99.90;;;;;;4976552;28;20190;-79
2023/09/11 12:15:53;;;;;;;10.27;5.40;;;27.90;1.00;;;;;;4976989;28;20237;-81
2023/09/11 12:18:21;;;;;;;7.78;4.75;;;27.90;45.20;;;;;;4976820;28;20174;-80
2023/09/11 12:21:02;;;;;;;11.93;4.70;;;27.90;99.90;;;;;;4960488;28;20203;-80
2023/09/11 12:23:29;;;;;;;8.27;5.45;;;28.10;1.00;;;;;;4958853;29;20185;-80
2023/09/11 12:25:55;;;;;;;9.68;4.88;;;28.20;12.50;;;;;;4959257;29;20182;-80
2023/09/11 12:28:22;;;;;;;13.00;4.63;;;28.20;99.90;;;;;;4957959;29;20630;-79
2023/09/11 12:30:48;;;;;;;14.40;5.50;;;28.30;99.90;;;;;;4959031;28;20194;-80
2023/09/11 12:33:25;;;;;;;11.20;4.72;;;28.40;99.90;;;;;;4976851;28;20201;-80
2023/09/11 12:35:54;;;;;;;11.63;5.22;;;28.30;1.00;;;;;;4978421;28;20209;-80
2023/09/11 12:38:21;;;;;;;10.10;4.65;;;28.40;99.90;;;;;;4978938;28;20201;-79